Time;durP1;ratioP1;P1;durP2;ratioP2;P2;SDS_P1;SDS_P2;PMS_P1;PMS_P2;Temp;Humidity;BMP_temperature;BMP_pressure;BME280_temperature;BME280_humidity;BME280_pressure;Samples;Min_cycle;Max_cycle;Signal;HPM_P1;HPM_P2
2021/11/07 00:04:26;;;;;;;11.75;8.10;;;;;;;7.92;59.75;101396.53;1622555;87;21170;-70
2021/11/07 00:06:56;;;;;;;13.35;8.40;;;;;;;7.92;59.76;101400.00;1638110;87;21133;-70
2021/11/07 00:09:31;;;;;;;10.55;7.80;;;;;;;7.92;59.72;101397.86;1642476;87;21126;-68
2021/11/07 00:11:57;;;;;;;11.45;8.00;;;;;;;7.92;59.71;101399.19;1668542;84;21105;-68
2021/11/07 00:14:25;;;;;;;12.25;8.48;;;;;;;7.88;59.73;101392.69;1669731;86;21529;-68
2021/11/07 00:16:54;;;;;;;11.12;8.28;;;;;;;7.82;59.81;101389.56;1669721;86;21574;-68
2021/11/07 00:22:14;;;;;;;12.58;7.78;;;;;;;7.75;59.99;101386.44;1638113;87;21029;-69
2021/11/07 00:24:44;;;;;;;11.75;7.72;;;;;;;7.71;60.11;101387.91;1615980;88;21114;-68
2021/11/07 00:27:20;;;;;;;13.85;8.33;;;;;;;7.68;60.24;101388.34;1644248;87;21505;-68
2021/11/07 00:29:48;;;;;;;11.40;8.33;;;;;;;7.65;60.46;101385.31;1616136;88;21176;-68
2021/11/07 00:32:53;;;;;;;10.63;7.97;;;;;;;7.64;60.59;101382.36;1616051;87;21098;-68
2021/11/07 00:38:14;;;;;;;11.00;8.15;;;;;;;7.61;60.63;101380.13;1643909;87;21125;-68
2021/11/07 00:43:04;;;;;;;10.55;8.05;;;;;;;7.55;60.87;101369.84;1599575;88;21435;-68
2021/11/07 00:44:57;;;;;;;12.10;8.13;;;;;;;7.55;60.92;101365.05;1637186;85;21003;-69
2021/11/07 00:50:11;;;;;;;11.63;8.08;;;;;;;7.52;61.14;101367.09;1650628;85;21030;-68
2021/11/07 00:55:18;;;;;;;11.35;8.03;;;;;;;7.55;61.13;101357.88;1670113;85;21116;-69
2021/11/07 00:58:02;;;;;;;11.28;8.15;;;;;;;7.53;61.15;101351.95;1670861;85;21057;-68
2021/11/07 01:00:37;;;;;;;12.05;7.60;;;;;;;7.49;61.27;101348.11;1670924;84;20976;-68
2021/11/07 01:02:58;;;;;;;11.40;8.23;;;;;;;7.49;61.19;101344.12;1669616;85;21105;-68
2021/11/07 01:05:26;;;;;;;12.93;8.13;;;;;;;7.47;61.21;101340.37;1669798;85;21494;-68
2021/11/07 01:07:54;;;;;;;11.93;8.20;;;;;;;7.47;61.25;101339.55;1669534;85;21131;-68
2021/11/07 01:10:26;;;;;;;14.03;10.10;;;;;;;7.44;61.30;101332.83;1671091;85;21514;-68
2021/11/07 01:12:53;;;;;;;11.55;8.35;;;;;;;7.45;61.35;101326.98;1671030;85;21058;-68
2021/11/07 01:15:21;;;;;;;11.97;8.28;;;;;;;7.47;61.36;101327.59;1671150;85;20999;-68
2021/11/07 01:17:48;;;;;;;11.35;8.73;;;;;;;7.48;61.37;101335.86;1671284;85;20971;-69
2021/11/07 01:20:17;;;;;;;12.30;8.90;;;;;;;7.46;61.42;101324.62;1670960;85;21803;-68
2021/11/07 01:22:55;;;;;;;12.60;8.88;;;;;;;7.47;61.46;101330.25;1670488;84;21069;-68
2021/11/07 01:25:13;;;;;;;12.60;8.90;;;;;;;7.45;61.46;101337.62;1669570;84;21049;-68
2021/11/07 01:27:41;;;;;;;12.98;9.10;;;;;;;7.43;61.37;101329.84;1671395;85;21687;-68
2021/11/07 01:30:16;;;;;;;13.10;8.60;;;;;;;7.40;61.42;101330.28;1642514;87;21074;-68
2021/11/07 01:32:43;;;;;;;12.65;8.45;;;;;;;7.36;61.51;101323.77;1642543;86;21086;-68
2021/11/07 01:37:43;;;;;;;12.43;8.63;;;;;;;7.38;61.49;101316.93;1671031;85;21062;-68
2021/11/07 01:40:13;;;;;;;12.60;8.65;;;;;;;7.37;61.47;101312.63;1670289;84;21159;-68
2021/11/07 01:42:42;;;;;;;11.95;8.70;;;;;;;7.37;61.61;101311.30;1642488;87;21007;-68
2021/11/07 01:45:29;;;;;;;12.05;8.45;;;;;;;7.34;61.70;101309.91;1670172;85;21131;-68
2021/11/07 01:48:09;;;;;;;12.20;8.88;;;;;;;7.32;61.86;101309.82;1671354;85;21015;-69
2021/11/07 01:50:24;;;;;;;11.70;8.18;;;;;;;7.29;61.94;101308.41;1668981;85;21081;-69
2021/11/07 01:53:02;;;;;;;13.10;8.63;;;;;;;7.28;62.01;101305.45;1671328;85;21149;-69
2021/11/07 01:55:20;;;;;;;13.55;8.83;;;;;;;7.25;62.06;101311.20;1670520;85;21007;-69
2021/11/07 01:57:49;;;;;;;11.93;8.30;;;;;;;7.20;62.08;101317.14;1671318;84;21086;-69
2021/11/07 02:00:20;;;;;;;12.18;8.28;;;;;;;7.17;62.01;101318.93;1670965;84;21054;-69
2021/11/07 02:02:47;;;;;;;11.63;8.08;;;;;;;7.16;62.00;101317.80;1671414;85;21110;-69
2021/11/07 02:05:15;;;;;;;12.40;8.30;;;;;;;7.15;62.03;101318.84;1671019;85;21054;-69
2021/11/07 02:07:43;;;;;;;11.83;8.60;;;;;;;7.14;62.03;101321.17;1671398;85;21113;-69
2021/11/07 02:10:12;;;;;;;11.68;8.30;;;;;;;7.11;62.07;101314.47;1671128;84;21519;-69
2021/11/07 02:12:40;;;;;;;8.75;6.75;;;;;;;7.05;62.22;101316.66;1671594;85;21050;-70
2021/11/07 02:15:13;;;;;;;12.80;8.83;;;;;;;7.01;62.42;101314.14;1671121;85;20971;-69
2021/11/07 02:17:41;;;;;;;13.55;9.35;;;;;;;6.98;62.48;101311.39;1671158;84;21490;-69
2021/11/07 02:20:11;;;;;;;10.72;8.18;;;;;;;7.03;62.42;101308.08;1671250;84;20986;-69
2021/11/07 02:22:40;;;;;;;10.95;8.38;;;;;;;7.03;62.38;101304.91;1671681;84;21143;-69
2021/11/07 02:25:07;;;;;;;13.13;9.00;;;;;;;7.03;62.41;101301.44;1671096;84;21430;-69
2021/11/07 02:27:35;;;;;;;11.00;7.95;;;;;;;7.01;62.51;101303.52;1639574;87;21593;-69
2021/11/07 02:30:04;;;;;;;11.85;8.03;;;;;;;6.99;62.50;101299.73;1669816;84;20987;-69
2021/11/07 02:32:31;;;;;;;10.53;8.28;;;;;;;6.99;62.51;101299.73;1641537;86;21023;-68
2021/11/07 02:34:57;;;;;;;12.10;8.48;;;;;;;6.99;62.54;101302.91;1670237;85;21747;-68
2021/11/07 02:37:24;;;;;;;12.43;8.28;;;;;;;6.97;62.59;101297.79;1642434;87;21483;-68
2021/11/07 02:39:51;;;;;;;11.80;8.73;;;;;;;6.95;62.60;101297.73;1671318;85;21009;-68
2021/11/07 02:42:18;;;;;;;10.78;7.65;;;;;;;6.94;62.59;101299.58;1642676;86;21474;-68
2021/11/07 02:44:46;;;;;;;10.88;7.00;;;;;;;6.93;62.50;101294.46;1669752;85;21052;-68
2021/11/07 02:47:15;;;;;;;12.07;8.08;;;;;;;6.85;62.24;101295.54;1671400;85;21170;-68
2021/11/07 02:49:42;;;;;;;10.10;7.65;;;;;;;6.71;62.11;101288.17;1671207;85;21018;-68
2021/11/07 02:52:13;;;;;;;11.55;8.15;;;;;;;6.58;62.08;101295.69;1671316;85;21045;-68
2021/11/07 02:54:41;;;;;;;10.85;7.25;;;;;;;6.47;62.11;101302.98;1671254;85;21597;-68
2021/11/07 02:57:10;;;;;;;11.60;8.28;;;;;;;6.37;62.15;101295.98;1671429;85;21062;-69
2021/11/07 02:59:40;;;;;;;12.33;8.40;;;;;;;6.23;62.31;101297.07;1671431;85;21865;-68
2021/11/07 03:02:07;;;;;;;12.33;7.87;;;;;;;6.14;62.50;101303.63;1671205;85;21025;-68
2021/11/07 03:04:34;;;;;;;12.50;7.87;;;;;;;6.08;62.63;101311.37;1671171;85;21624;-68
2021/11/07 03:07:01;;;;;;;12.05;7.55;;;;;;;6.03;62.70;101315.19;1671261;85;21058;-68
2021/11/07 03:09:32;;;;;;;12.68;7.80;;;;;;;5.99;62.83;101312.66;1671307;85;20978;-68
2021/11/07 03:12:00;;;;;;;11.80;7.62;;;;;;;5.93;62.90;101312.66;1670193;85;21822;-68
2021/11/07 03:14:33;;;;;;;11.28;7.90;;;;;;;5.88;63.01;101312.72;1671047;84;21443;-68
2021/11/07 03:17:02;;;;;;;11.75;7.55;;;;;;;5.85;63.11;101312.33;1670925;85;20986;-68
2021/11/07 03:19:29;;;;;;;10.82;7.70;;;;;;;5.78;63.31;101318.97;1641103;86;21106;-68
2021/11/07 03:21:59;;;;;;;11.08;8.08;;;;;;;5.74;63.49;101323.05;1671222;84;21097;-68
2021/11/07 03:24:26;;;;;;;11.18;7.83;;;;;;;5.72;63.73;101318.46;1667675;84;21125;-68
2021/11/07 03:26:52;;;;;;;12.73;8.13;;;;;;;5.71;63.97;101323.47;1642660;87;21007;-68
2021/11/07 03:29:21;;;;;;;11.00;8.20;;;;;;;5.70;64.17;101319.19;1670799;84;21555;-68
2021/11/07 03:31:55;;;;;;;11.55;7.70;;;;;;;5.69;64.31;101318.87;1642736;86;21043;-68
2021/11/07 03:34:30;;;;;;;12.40;8.43;;;;;;;5.70;64.41;101318.38;1642470;86;21014;-68
2021/11/07 03:36:55;;;;;;;11.78;8.63;;;;;;;5.69;64.60;101315.41;1670308;84;21156;-68
2021/11/07 03:39:22;;;;;;;13.48;9.05;;;;;;;5.67;64.91;101313.49;1642617;86;21484;-69
2021/11/07 03:41:48;;;;;;;12.73;8.30;;;;;;;5.66;65.13;101307.38;1671255;84;20985;-68
2021/11/07 03:44:17;;;;;;;11.60;8.30;;;;;;;5.67;65.28;101301.05;1642525;86;21584;-68
2021/11/07 03:46:46;;;;;;;10.80;7.95;;;;;;;5.69;65.38;101312.76;1670818;84;21107;-68
2021/11/07 03:49:12;;;;;;;10.93;8.18;;;;;;;5.71;65.45;101305.42;1642546;87;21128;-68
2021/11/07 03:51:40;;;;;;;12.35;8.65;;;;;;;5.71;65.52;101301.45;1670934;84;20964;-68
2021/11/07 03:54:08;;;;;;;13.68;8.78;;;;;;;5.70;65.56;101302.48;1642505;86;21041;-68
2021/11/07 03:56:35;;;;;;;13.72;8.85;;;;;;;5.71;65.62;101305.42;1671163;84;20993;-68
2021/11/07 03:59:01;;;;;;;12.35;9.10;;;;;;;5.68;65.75;101301.34;1671000;84;21479;-68
2021/11/07 04:01:28;;;;;;;12.93;8.95;;;;;;;5.69;65.82;101297.66;1642492;87;21999;-68
2021/11/07 04:03:55;;;;;;;12.80;9.13;;;;;;;5.68;65.88;101293.39;1671041;85;21012;-68
2021/11/07 04:06:21;;;;;;;13.60;9.58;;;;;;;5.68;65.90;101296.05;1642352;86;21023;-68
2021/11/07 04:08:49;;;;;;;13.10;9.28;;;;;;;5.66;65.94;101295.45;1641174;86;21059;-68
2021/11/07 04:11:16;;;;;;;13.70;9.23;;;;;;;5.67;65.96;101298.91;1671136;84;21009;-68
2021/11/07 04:13:44;;;;;;;12.58;8.65;;;;;;;5.70;65.91;101301.16;1642331;87;21154;-68
2021/11/07 04:16:11;;;;;;;12.78;9.25;;;;;;;5.69;65.87;101291.55;1654910;84;21160;-68
2021/11/07 04:18:39;;;;;;;12.88;8.73;;;;;;;5.70;65.84;101292.69;1642491;87;21082;-68
2021/11/07 04:21:06;;;;;;;13.68;8.78;;;;;;;5.69;65.82;101287.06;1671350;84;21089;-68
2021/11/07 04:23:34;;;;;;;13.65;9.13;;;;;;;5.68;65.81;101290.74;1671039;85;21010;-69
2021/11/07 04:26:01;;;;;;;12.30;9.43;;;;;;;5.65;65.81;101285.34;1669921;84;21467;-68
2021/11/07 04:28:29;;;;;;;13.38;9.53;;;;;;;5.64;65.84;101283.72;1668466;84;21514;-68
2021/11/07 04:30:56;;;;;;;13.15;9.38;;;;;;;5.64;65.84;101284.23;1667558;85;20987;-69
2021/11/07 04:33:24;;;;;;;13.00;9.73;;;;;;;5.63;65.86;101281.29;1670484;84;22187;-68
2021/11/07 04:35:51;;;;;;;12.70;8.93;;;;;;;5.56;65.98;101281.78;1640719;86;21086;-68
2021/11/07 04:38:19;;;;;;;14.15;9.40;;;;;;;5.60;65.90;101271.91;1669541;84;21077;-68
2021/11/07 04:40:46;;;;;;;12.80;9.58;;;;;;;5.61;65.87;101278.83;1669798;86;21010;-68
2021/11/07 04:43:13;;;;;;;14.53;9.68;;;;;;;5.61;65.90;101278.02;1670047;84;21069;-68
2021/11/07 04:45:39;;;;;;;13.80;9.78;;;;;;;5.60;65.94;101279.05;1670696;85;21006;-69
2021/11/07 04:48:06;;;;;;;14.65;10.32;;;;;;;5.56;66.01;101273.34;1642389;87;21645;-69
2021/11/07 04:50:36;;;;;;;14.85;10.00;;;;;;;5.55;66.08;101285.46;1671310;84;21788;-69
2021/11/07 04:53:04;;;;;;;12.35;9.58;;;;;;;5.53;66.17;101286.20;1670965;84;21065;-69
2021/11/07 04:55:34;;;;;;;13.32;10.03;;;;;;;5.54;66.19;101286.48;1671151;85;21062;-69
2021/11/07 04:58:03;;;;;;;12.37;8.80;;;;;;;5.55;66.17;101290.25;1671253;85;21112;-69
2021/11/07 05:00:32;;;;;;;13.20;9.63;;;;;;;5.57;66.22;101300.66;1642665;86;21023;-69
2021/11/07 05:03:01;;;;;;;16.10;10.80;;;;;;;5.54;66.32;101301.87;1671106;85;21976;-69
2021/11/07 05:05:28;;;;;;;16.87;11.70;;;;;;;5.54;66.43;101301.06;1642533;86;21003;-69
2021/11/07 05:07:56;;;;;;;18.60;12.47;;;;;;;5.54;66.54;101303.20;1642495;86;20998;-69
2021/11/07 05:10:24;;;;;;;16.95;12.25;;;;;;;5.57;66.61;101304.63;1642506;86;21003;-69
2021/11/07 05:12:53;;;;;;;15.65;11.10;;;;;;;5.58;66.65;101304.41;1642650;86;20967;-69
2021/11/07 05:15:20;;;;;;;17.40;12.25;;;;;;;5.63;66.63;101301.16;1642590;86;21195;-69
2021/11/07 05:17:46;;;;;;;17.80;11.50;;;;;;;5.68;66.55;101297.88;1642719;87;21015;-69
2021/11/07 05:20:13;;;;;;;16.62;11.88;;;;;;;5.72;66.48;101304.39;1642728;86;21562;-69
2021/11/07 05:22:40;;;;;;;18.00;11.70;;;;;;;5.76;66.42;101304.28;1642755;86;21502;-69
2021/11/07 05:25:08;;;;;;;15.20;11.30;;;;;;;5.80;66.35;101307.66;1642795;86;21038;-69
2021/11/07 05:27:35;;;;;;;19.00;12.55;;;;;;;5.89;66.26;101314.89;1642667;86;21172;-69
2021/11/07 05:30:05;;;;;;;15.28;10.90;;;;;;;5.94;66.18;101311.64;1642762;86;21474;-69
2021/11/07 05:32:32;;;;;;;15.95;11.22;;;;;;;5.98;66.11;101312.84;1642580;86;21031;-69
2021/11/07 05:34:59;;;;;;;17.00;11.65;;;;;;;6.00;66.04;101311.62;1642623;86;21028;-69
2021/11/07 05:37:26;;;;;;;15.13;11.43;;;;;;;6.04;65.94;101312.83;1642635;86;21188;-69
2021/11/07 05:39:53;;;;;;;15.63;10.28;;;;;;;6.09;65.82;101314.36;1640403;86;21115;-69
2021/11/07 05:42:21;;;;;;;15.35;11.33;;;;;;;6.13;65.70;101316.08;1641089;86;21015;-69
2021/11/07 05:44:48;;;;;;;14.73;11.03;;;;;;;6.15;65.64;101315.86;1641149;86;20995;-69
2021/11/07 05:47:14;;;;;;;13.20;9.88;;;;;;;6.19;65.56;101311.78;1641378;86;21555;-69
2021/11/07 05:49:42;;;;;;;17.05;11.90;;;;;;;6.22;65.48;101310.01;1669638;86;21060;-69
2021/11/07 05:52:08;;;;;;;16.32;10.35;;;;;;;6.24;65.41;101307.45;1641070;86;21600;-69
2021/11/07 05:54:35;;;;;;;17.30;12.50;;;;;;;6.30;65.33;101304.48;1641432;86;21114;-69
2021/11/07 05:57:02;;;;;;;15.95;10.98;;;;;;;6.35;65.25;101302.03;1641237;86;21479;-69
2021/11/07 05:59:30;;;;;;;16.50;11.73;;;;;;;6.42;65.17;101300.67;1641147;86;21487;-69
2021/11/07 06:01:57;;;;;;;18.23;12.47;;;;;;;6.48;65.06;101301.97;1641127;86;21582;-69
2021/11/07 06:04:24;;;;;;;13.70;9.85;;;;;;;6.54;64.96;101291.81;1641163;86;21494;-69
2021/11/07 06:06:52;;;;;;;14.63;10.53;;;;;;;6.62;64.81;101292.09;1669650;86;21062;-69
2021/11/07 06:09:19;;;;;;;15.68;10.48;;;;;;;6.66;64.72;101290.64;1669963;86;21009;-69
2021/11/07 06:11:46;;;;;;;15.38;10.53;;;;;;;6.68;64.59;101301.87;1641362;87;21083;-69
2021/11/07 06:14:15;;;;;;;14.93;11.18;;;;;;;6.70;64.46;101309.61;1671027;85;21121;-69
2021/11/07 06:16:42;;;;;;;16.02;11.73;;;;;;;6.71;64.37;101302.78;1671286;84;21237;-69
2021/11/07 06:19:09;;;;;;;15.13;11.35;;;;;;;6.73;64.32;101306.02;1642610;86;20988;-68
2021/11/07 06:21:37;;;;;;;15.18;10.93;;;;;;;6.79;64.25;101299.86;1642495;86;21066;-69
2021/11/07 06:24:07;;;;;;;13.75;10.70;;;;;;;6.87;64.23;101299.30;1642791;87;21181;-69
2021/11/07 06:26:33;;;;;;;16.27;11.57;;;;;;;6.94;64.02;101303.56;1642383;86;21099;-69
2021/11/07 06:29:00;;;;;;;18.50;13.50;;;;;;;6.97;63.61;101303.09;1642845;87;21834;-69
2021/11/07 06:31:26;;;;;;;17.40;12.30;;;;;;;6.96;63.33;101295.36;1642595;86;20936;-70
2021/11/07 06:33:53;;;;;;;16.40;12.07;;;;;;;6.96;63.07;101297.50;1671049;85;21111;-69
2021/11/07 06:36:20;;;;;;;14.47;11.03;;;;;;;7.01;63.08;101290.23;1669817;85;21060;-69
2021/11/07 06:38:47;;;;;;;17.73;12.47;;;;;;;7.05;62.95;101288.25;1694053;83;21554;-70
2021/11/07 06:41:13;;;;;;;16.27;11.90;;;;;;;7.09;62.81;101278.00;1671159;84;21128;-70
2021/11/07 06:43:41;;;;;;;15.85;11.38;;;;;;;7.16;62.75;101276.10;1670941;84;21107;-70
2021/11/07 06:46:07;;;;;;;16.15;11.95;;;;;;;7.21;62.45;101280.27;1671105;84;21035;-70
2021/11/07 06:48:35;;;;;;;16.02;12.07;;;;;;;7.28;62.36;101285.53;1670780;84;21064;-70
2021/11/07 06:51:02;;;;;;;16.87;11.93;;;;;;;7.34;62.25;101302.42;1670932;84;21088;-69
2021/11/07 06:53:30;;;;;;;16.75;11.88;;;;;;;7.42;62.21;101291.53;1655695;85;21166;-69
2021/11/07 06:55:57;;;;;;;15.98;11.15;;;;;;;7.49;61.88;101297.61;1669829;84;21505;-69
2021/11/07 06:58:24;;;;;;;14.30;11.33;;;;;;;7.55;61.80;101301.25;1670920;84;21094;-69
2021/11/07 07:00:50;;;;;;;15.13;11.63;;;;;;;7.60;61.55;101302.71;1669991;84;21016;-69
2021/11/07 07:03:18;;;;;;;15.60;10.25;;;;;;;7.66;61.49;101297.34;1671293;85;21611;-69
2021/11/07 07:05:45;;;;;;;16.20;11.93;;;;;;;7.78;61.53;101288.65;1671166;85;21849;-69
2021/11/07 07:08:18;;;;;;;14.68;11.18;;;;;;;7.87;61.26;101282.83;1670998;84;21130;-69
2021/11/07 07:10:51;;;;;;;19.17;12.37;;;;;;;7.96;61.13;101285.49;1670622;84;21044;-68
2021/11/07 07:13:21;;;;;;;16.05;10.85;;;;;;;8.07;61.05;101276.48;1670309;84;21089;-68
2021/11/07 07:15:47;;;;;;;14.55;11.15;;;;;;;8.22;60.91;101260.92;1667170;85;21203;-68
2021/11/07 07:20:51;;;;;;;15.32;10.82;;;;;;;8.54;60.46;101253.57;1665887;84;21104;-69
2021/11/07 07:31:12;;;;;;;14.05;10.63;;;;;;;8.89;59.44;101236.89;1641027;86;21127;-68
2021/11/07 07:35:56;;;;;;;14.78;10.70;;;;;;;9.14;59.07;101226.02;1669626;84;21130;-69
2021/11/07 07:38:25;;;;;;;14.00;10.68;;;;;;;9.22;58.19;101223.55;1669923;85;21062;-69
2021/11/07 07:40:52;;;;;;;13.95;10.80;;;;;;;9.22;57.97;101215.03;1671490;85;20959;-68
2021/11/07 07:43:19;;;;;;;14.23;10.85;;;;;;;9.24;57.85;101216.92;1671135;85;21193;-69
2021/11/07 07:45:46;;;;;;;14.55;10.32;;;;;;;9.32;57.99;101219.25;1659006;85;20981;-69
2021/11/07 07:48:15;;;;;;;13.40;10.30;;;;;;;9.44;57.83;101203.23;1671277;84;21092;-68
2021/11/07 07:50:43;;;;;;;11.85;8.93;;;;;;;9.55;57.53;101212.30;1667539;84;21039;-69
2021/11/07 07:53:11;;;;;;;14.38;10.00;;;;;;;9.66;57.41;101210.12;1642522;87;21607;-69
2021/11/07 07:55:39;;;;;;;13.85;10.35;;;;;;;9.76;57.29;101209.52;1670053;84;21703;-68
2021/11/07 07:58:06;;;;;;;14.83;10.88;;;;;;;9.91;57.03;101220.52;1670871;84;21103;-68
2021/11/07 08:00:33;;;;;;;14.90;11.12;;;;;;;10.00;56.57;101216.44;1671568;84;21107;-68
2021/11/07 08:03:00;;;;;;;12.70;9.80;;;;;;;10.09;56.50;101220.86;1670982;84;21500;-68
2021/11/07 08:05:27;;;;;;;11.70;9.00;;;;;;;10.19;56.37;101226.92;1642536;86;21068;-68
2021/11/07 08:07:53;;;;;;;14.25;9.78;;;;;;;10.31;56.19;101223.72;1670952;84;22344;-69
2021/11/07 08:10:20;;;;;;;12.07;9.38;;;;;;;10.41;56.10;101211.89;1658154;84;20987;-69
2021/11/07 08:12:47;;;;;;;12.58;10.23;;;;;;;10.52;55.75;101208.87;1642553;87;21106;-69
2021/11/07 08:15:15;;;;;;;14.38;9.33;;;;;;;10.63;55.48;101207.17;1670251;85;21034;-68
2021/11/07 08:17:43;;;;;;;12.03;9.65;;;;;;;10.73;55.23;101207.38;1671281;85;21548;-68
2021/11/07 08:20:12;;;;;;;12.03;8.98;;;;;;;10.84;55.11;101203.81;1671532;85;21556;-69
2021/11/07 08:22:41;;;;;;;13.05;10.08;;;;;;;10.95;54.75;101194.89;1671052;85;20971;-69
2021/11/07 08:25:14;;;;;;;14.38;10.10;;;;;;;11.02;54.53;101190.70;1670681;85;21642;-69
2021/11/07 08:27:44;;;;;;;12.45;8.38;;;;;;;11.12;54.53;101191.39;1665356;85;21196;-69
2021/11/07 08:30:12;;;;;;;11.88;9.20;;;;;;;11.23;53.91;101185.16;1640367;86;21684;-69
2021/11/07 08:32:38;;;;;;;12.50;9.68;;;;;;;11.28;53.66;101179.33;1641387;86;21502;-69
2021/11/07 08:35:06;;;;;;;11.68;8.38;;;;;;;11.38;53.70;101180.00;1670756;84;21010;-69
2021/11/07 08:37:49;;;;;;;12.18;9.98;;;;;;;11.46;53.46;101167.55;1669895;86;21134;-69
2021/11/07 08:40:14;;;;;;;12.37;9.25;;;;;;;11.49;53.03;101171.61;1640503;87;21439;-69
2021/11/07 08:42:46;;;;;;;13.22;9.28;;;;;;;11.57;53.08;101163.67;1670035;84;21061;-70
2021/11/07 09:01:59;;;;;;;13.32;9.05;;;;;;;12.02;52.44;101141.21;1671768;84;21112;-69
2021/11/07 09:09:29;;;;;;;10.35;8.18;;;;;;;12.20;51.56;101134.14;1635624;86;21073;-69
2021/11/07 09:12:00;;;;;;;12.37;8.93;;;;;;;12.29;51.48;101129.95;1671235;84;20964;-69
2021/11/07 09:14:30;;;;;;;11.47;9.00;;;;;;;12.39;51.45;101117.98;1642476;87;21062;-70
2021/11/07 09:16:57;;;;;;;12.23;9.30;;;;;;;12.48;50.80;101109.48;1671518;85;21262;-69
2021/11/07 09:19:26;;;;;;;12.47;8.25;;;;;;;12.49;50.75;101102.52;1671352;85;21736;-69
2021/11/07 09:21:57;;;;;;;11.97;8.87;;;;;;;12.53;50.82;101097.45;1671635;85;21450;-69
2021/11/07 09:24:27;;;;;;;10.73;8.03;;;;;;;12.60;50.71;101098.88;1671037;85;21481;-68
2021/11/07 09:26:54;;;;;;;11.57;9.03;;;;;;;12.65;50.45;101096.75;1671470;85;21667;-69
2021/11/07 09:29:43;;;;;;;12.13;9.03;;;;;;;12.65;50.55;101105.59;1671288;84;21561;-68
2021/11/07 09:37:04;;;;;;;11.93;9.57;;;;;;;12.68;50.39;101093.02;1671590;85;22247;-69
2021/11/07 09:39:39;;;;;;;13.93;9.37;;;;;;;12.69;50.37;101092.48;1671231;85;21291;-68
2021/11/07 09:44:54;;;;;;;12.40;9.30;;;;;;;12.81;50.31;101099.01;1671337;85;21385;-70
2021/11/07 09:47:22;;;;;;;11.87;9.10;;;;;;;12.82;50.07;101091.23;1671572;85;21166;-69
2021/11/07 09:49:49;;;;;;;12.07;9.47;;;;;;;12.83;50.38;101082.95;1671611;85;21187;-69
2021/11/07 09:52:24;;;;;;;10.73;9.03;;;;;;;12.87;50.17;101073.31;1671416;84;21805;-69
2021/11/07 09:54:57;;;;;;;11.30;9.10;;;;;;;12.90;50.08;101059.39;1671502;85;21247;-70
2021/11/07 09:57:22;;;;;;;12.60;8.90;;;;;;;12.98;49.83;101045.21;1671019;84;21251;-70
2021/11/07 09:59:56;;;;;;;10.57;9.13;;;;;;;13.06;48.98;101041.52;1671542;85;21413;-70
2021/11/07 10:02:23;;;;;;;10.63;8.23;;;;;;;13.09;49.15;101039.62;1671370;85;21275;-69
2021/11/07 10:04:50;;;;;;;9.43;7.63;;;;;;;13.21;49.30;101019.83;1670395;85;21286;-68
2021/11/07 10:07:23;;;;;;;11.40;8.30;;;;;;;13.35;49.05;101013.73;1669875;85;21286;-69
2021/11/07 10:09:59;;;;;;;9.90;7.97;;;;;;;13.46;49.00;101010.55;1644093;86;21757;-69
2021/11/07 10:12:55;;;;;;;10.87;8.27;;;;;;;13.57;48.38;101010.03;1643653;85;21330;-69
2021/11/07 10:15:03;;;;;;;10.30;7.70;;;;;;;13.66;47.70;101007.64;1631241;87;21313;-69
2021/11/07 10:17:37;;;;;;;11.70;8.80;;;;;;;13.66;47.76;101004.96;1616326;88;21347;-69
2021/11/07 10:22:53;;;;;;;9.50;7.50;;;;;;;13.61;47.42;100993.66;1616438;88;21813;-69
2021/11/07 10:25:27;;;;;;;10.40;8.38;;;;;;;13.62;47.63;100984.52;1616623;88;21151;-69
2021/11/07 10:27:55;;;;;;;10.15;7.42;;;;;;;13.62;47.70;100983.19;1643472;85;21085;-69
2021/11/07 10:30:29;;;;;;;10.00;7.87;;;;;;;13.65;47.37;100984.00;1644149;87;21073;-69
2021/11/07 10:40:34;;;;;;;10.37;7.80;;;;;;;13.79;46.89;100997.19;1616692;88;21318;-69
2021/11/07 10:45:58;;;;;;;10.30;8.07;;;;;;;13.90;46.35;100982.42;1634945;87;20999;-69
2021/11/07 10:48:21;;;;;;;11.17;7.60;;;;;;;13.86;46.20;100983.49;1625548;88;21092;-69
2021/11/07 10:53:48;;;;;;;11.43;8.27;;;;;;;13.80;45.76;100970.59;1663356;86;21197;-70
2021/11/07 10:56:15;;;;;;;10.33;8.10;;;;;;;13.70;45.85;100986.70;1635047;86;21417;-70
2021/11/07 10:58:46;;;;;;;11.27;8.13;;;;;;;13.63;46.02;100975.96;1660849;84;21765;-70
2021/11/07 11:01:21;;;;;;;9.80;7.60;;;;;;;13.62;46.32;100968.42;1642884;86;21065;-70
2021/11/07 11:03:48;;;;;;;10.80;8.17;;;;;;;13.66;46.08;100960.67;1670710;85;20997;-69
2021/11/07 11:06:16;;;;;;;10.23;8.40;;;;;;;13.63;45.67;100941.87;1671198;85;21313;-70
2021/11/07 11:08:54;;;;;;;11.57;8.47;;;;;;;13.60;45.67;100939.18;1641968;87;22022;-69
2021/11/07 11:11:34;;;;;;;12.17;8.43;;;;;;;13.66;46.28;100934.63;1642637;86;21231;-70
2021/11/07 11:16:49;;;;;;;10.77;7.87;;;;;;;13.66;45.77;100936.51;1671668;85;21219;-70
2021/11/07 11:19:47;;;;;;;11.07;7.50;;;;;;;13.59;46.06;100937.58;1670803;85;21673;-71
2021/11/07 11:32:44;;;;;;;8.93;7.47;;;;;;;13.10;46.81;100948.73;1642961;87;21803;-69
2021/11/07 11:35:15;;;;;;;10.70;7.90;;;;;;;13.12;47.17;100941.74;1640668;87;21299;-70
2021/11/07 11:40:53;;;;;;;10.37;7.87;;;;;;;13.26;47.12;100926.80;1670243;84;21322;-69
2021/11/07 11:42:44;;;;;;;10.87;7.67;;;;;;;13.29;46.90;100914.20;1653712;85;21270;-70
2021/11/07 11:45:07;;;;;;;9.20;7.13;;;;;;;13.33;46.82;100907.77;1671009;85;21243;-70
2021/11/07 11:50:51;;;;;;;10.50;7.43;;;;;;;13.41;46.92;100887.64;1671212;84;21216;-70
2021/11/07 11:55:42;;;;;;;10.00;7.53;;;;;;;13.48;46.94;100876.91;1671269;84;21138;-69
2021/11/07 12:06:44;;;;;;;12.00;8.33;;;;;;;13.63;46.72;100872.09;1642678;86;21248;-70
2021/11/07 12:09:31;;;;;;;11.03;8.47;;;;;;;13.71;46.63;100868.05;1642321;86;21653;-68
2021/11/07 12:12:06;;;;;;;10.93;8.40;;;;;;;13.79;46.45;100869.66;1642702;87;21277;-70
2021/11/07 12:14:39;;;;;;;11.17;8.40;;;;;;;13.85;46.42;100863.72;1670763;84;21395;-70
2021/11/07 12:17:05;;;;;;;11.90;8.50;;;;;;;13.88;46.34;100871.77;1642533;87;21429;-69
2021/11/07 12:19:40;;;;;;;11.00;8.43;;;;;;;13.87;46.47;100866.95;1642635;86;21604;-69
2021/11/07 12:22:10;;;;;;;12.57;9.13;;;;;;;13.87;46.50;100862.12;1643012;87;20979;-70
2021/11/07 12:24:56;;;;;;;11.00;8.73;;;;;;;13.84;46.42;100860.23;1671008;84;21249;-69
2021/11/07 12:27:43;;;;;;;12.70;9.60;;;;;;;13.76;46.50;100852.74;1642930;87;21369;-69
2021/11/07 12:30:23;;;;;;;12.00;9.03;;;;;;;13.66;46.88;100855.45;1671045;85;21209;-69
2021/11/07 12:32:50;;;;;;;12.33;8.87;;;;;;;13.58;47.06;100864.02;1642419;87;21344;-69
2021/11/07 12:35:34;;;;;;;14.97;8.53;;;;;;;13.53;47.43;100852.77;1671501;85;21308;-71
2021/11/07 12:41:02;;;;;;;12.47;9.00;;;;;;;13.46;47.32;100832.11;1635110;86;21649;-69
2021/11/07 12:43:38;;;;;;;12.23;9.07;;;;;;;13.37;47.54;100823.78;1662791;85;21144;-69
2021/11/07 12:46:46;;;;;;;12.50;8.27;;;;;;;13.34;47.72;100821.64;1634782;86;21296;-69
2021/11/07 12:49:26;;;;;;;10.83;8.93;;;;;;;13.32;47.75;100818.41;1662598;86;21756;-69
2021/11/07 12:52:01;;;;;;;11.63;9.08;;;;;;;13.26;47.88;100823.53;1637753;86;21814;-69
2021/11/07 12:54:35;;;;;;;10.77;8.70;;;;;;;13.22;48.00;100825.62;1641146;86;21117;-69
2021/11/07 12:57:08;;;;;;;12.03;8.63;;;;;;;13.18;48.12;100815.97;1643044;87;21416;-69
2021/11/07 12:59:43;;;;;;;12.37;9.57;;;;;;;13.16;48.27;100811.39;1670758;84;21260;-70
2021/11/07 13:02:29;;;;;;;14.07;9.43;;;;;;;13.16;48.42;100808.72;1642089;86;21464;-68
2021/11/07 13:05:13;;;;;;;13.00;9.20;;;;;;;13.15;48.62;100798.53;1671039;84;21288;-70
2021/11/07 13:07:54;;;;;;;12.30;9.53;;;;;;;13.15;48.71;100805.23;1667968;84;21366;-69
2021/11/07 13:13:06;;;;;;;11.73;9.13;;;;;;;13.11;48.89;100814.09;1606491;85;21211;-69
2021/11/07 13:15:40;;;;;;;14.13;10.07;;;;;;;13.06;48.92;100796.14;1694754;84;21713;-69
2021/11/07 13:21:11;;;;;;;12.50;9.53;;;;;;;12.95;49.02;100791.02;1668962;84;21753;-69
2021/11/07 13:23:46;;;;;;;13.80;10.20;;;;;;;12.86;49.01;100790.19;1640490;86;21319;-70
2021/11/07 13:28:44;;;;;;;13.27;9.97;;;;;;;12.62;49.37;100789.09;1665597;85;21374;-69